»·PEaware :: N347CD KAVX-KSAN

N347CD :: KAVX-KSAN

FLIGHT INFORMATION

Flight Status: Arrived
Operator: Privately registered:
United States
More flights under this callsign
Pilot: Daniel C. (3642)
Aircraft: CIRRUS SR-22
(SR22)
More flights by this aircraft type
Origin: KAVX Catalina
United States
Destination: KSAN San Diego Intl-Lindbergh
United States
More flights between these airports :: More routes between these airports
Route: CSTN56
File this flight plan on PilotEdge
Remarks: LYNDI RNAV GPS RWY 27
Altitude:
(Current/Filed)
5,000ft
Speed:
(Current/Filed)
165kts
Departed: 07-Jan-18 09:45 AM
Arrived: 07-Jan-18 10:35 AM
Distance/Time
Traveled:
74nm/0:50
Distance/Time
To Go:
Arrived

Flight Plot

Page will automatically refresh every two minutes.


Map Options




Map Legend


Flown Route
Filed Route
Departure Airport
Arrival Airport
Navaid (VOR, NDB)
Fix

Horizontal Profiles

Position Reports

Time Latitude Longitude Heading Altitude Ground
Speed
07-Jan-18 09:46 33.403546 -118.415556 260 1604ft 0kts
07-Jan-18 09:47 33.403546 -118.415556 260 1604ft 0kts
07-Jan-18 09:48 33.403692 -118.416702 287 1604ft 6kts
07-Jan-18 09:49 33.402861 -118.418650 236 1604ft 7kts
07-Jan-18 09:50 33.402311 -118.419604 254 1604ft 1kts
07-Jan-18 09:51 33.406422 -118.413414 54 1604ft 76kts
07-Jan-18 09:52 33.396786 -118.390897 191 2404ft 122kts
07-Jan-18 09:53 33.377149 -118.425277 187 2958ft 152kts
07-Jan-18 09:54 33.374592 -118.386019 106 3413ft 151kts
07-Jan-18 09:55 33.364655 -118.340234 98 4395ft 140kts
07-Jan-18 09:56 33.359008 -118.299158 97 4842ft 146kts
07-Jan-18 09:57 33.356586 -118.280266 97 4842ft 157kts
07-Jan-18 09:58 33.349439 -118.226172 97 4840ft 170kts
07-Jan-18 09:59 33.341982 -118.169389 98 4839ft 174kts
07-Jan-18 10:00 33.334363 -118.111712 97 4839ft 175kts
07-Jan-18 10:01 33.327801 -118.062255 97 4846ft 175kts
07-Jan-18 10:02 33.320235 -118.005536 97 4847ft 175kts
07-Jan-18 10:03 33.312489 -117.947754 98 4847ft 175kts
07-Jan-18 10:04 33.304787 -117.890120 98 4848ft 176kts
07-Jan-18 10:05 33.297054 -117.832363 98 4848ft 176kts
07-Jan-18 10:06 33.289278 -117.774540 98 4848ft 176kts
07-Jan-18 10:07 33.281441 -117.716962 98 4848ft 176kts
07-Jan-18 10:08 33.273621 -117.659250 99 4848ft 176kts
07-Jan-18 10:09 33.269541 -117.629060 99 4848ft 176kts
07-Jan-18 10:10 33.261687 -117.571322 99 4848ft 176kts
07-Jan-18 10:11 33.253642 -117.513651 98 4848ft 176kts
07-Jan-18 10:12 33.245759 -117.455774 98 4839ft 176kts
07-Jan-18 10:13 33.223304 -117.409951 161 4841ft 178kts
07-Jan-18 10:14 33.176360 -117.390837 159 4839ft 179kts
07-Jan-18 10:15 33.129386 -117.371099 159 4838ft 179kts
07-Jan-18 10:16 33.082676 -117.351462 160 4838ft 179kts
07-Jan-18 10:17 33.035636 -117.331690 159 4838ft 176kts
07-Jan-18 10:18 32.991994 -117.313414 159 4836ft 157kts
07-Jan-18 10:19 32.951497 -117.296503 159 4839ft 156kts
07-Jan-18 10:20 32.909833 -117.278926 159 4839ft 160kts
07-Jan-18 10:21 32.869384 -117.257297 116 4840ft 165kts
07-Jan-18 10:22 32.858698 -117.203613 100 4839ft 169kts
07-Jan-18 10:23 32.848354 -117.148842 101 4839ft 170kts
07-Jan-18 10:24 32.838138 -117.093718 100 4839ft 171kts
07-Jan-18 10:25 32.828012 -117.038680 100 4848ft 170kts
07-Jan-18 10:26 32.817919 -116.983458 99 4848ft 171kts
07-Jan-18 10:27 32.807802 -116.928202 101 4848ft 171kts
07-Jan-18 10:28 32.797692 -116.873103 101 4848ft 171kts
07-Jan-18 10:29 32.783930 -116.819936 144 4848ft 173kts
07-Jan-18 10:30 32.745450 -116.840500 214 4846ft 150kts
07-Jan-18 10:31 32.711154 -116.864631 209 4846ft 138kts
07-Jan-18 10:32 32.683984 -116.893456 251 4534ft 141kts
07-Jan-18 10:33 32.672072 -116.936281 274 3921ft 131kts
07-Jan-18 10:34 32.681379 -116.976992 288 3409ft 127kts
07-Jan-18 10:35 32.691330 -117.017824 287 2911ft 129kts
07-Jan-18 10:36 32.701063 -117.058012 286 2494ft 126kts
07-Jan-18 10:37 32.709379 -117.091194 287 1825ft 117kts
07-Jan-18 10:38 32.718793 -117.129723 288 1070ft 95kts
07-Jan-18 10:39 32.725834 -117.158930 287 504ft 89kts
07-Jan-18 10:40 32.731412 -117.180892 290 25ft 74kts
07-Jan-18 10:41 32.733165 -117.187479 280 19ft 10kts
07-Jan-18 10:42 32.734036 -117.186738 86 19ft 17kts
07-Jan-18 10:43 32.735733 -117.184239 330 19ft 9kts

Navigation Log

Ident Type
1. KAVX Airport
2. KSAN Airport